createdAt,value
2022-11-15T00:00:56.564Z,51.85
2022-11-15T00:03:28.330Z,50.85
2022-11-15T00:05:55.249Z,50.03
2022-11-15T00:08:21.860Z,49.85
2022-11-15T00:10:59.183Z,50.13
2022-11-15T00:13:26.287Z,53.13
2022-11-15T00:15:53.177Z,52.58
2022-11-15T00:18:19.913Z,53.35
2022-11-15T00:20:46.369Z,54.75
2022-11-15T00:23:13.094Z,51.20
2022-11-15T00:25:39.780Z,51.35
2022-11-15T00:28:06.253Z,54.83
2022-11-15T00:30:32.780Z,53.58
2022-11-15T00:33:04.100Z,53.05
2022-11-15T00:35:33.174Z,52.08
2022-11-15T00:37:59.893Z,52.10
2022-11-15T00:40:26.441Z,49.67
2022-11-15T00:42:55.186Z,49.53
2022-11-15T00:45:21.624Z,51.22
2022-11-15T00:47:48.052Z,49.75
2022-11-15T00:50:15.499Z,48.70
2022-11-15T00:52:42.427Z,48.28
2022-11-15T00:55:14.921Z,50.22
2022-11-15T00:57:41.453Z,48.10
2022-11-15T01:00:08.342Z,49.03
2022-11-15T01:02:35.500Z,47.25
2022-11-15T01:05:02.379Z,50.55
2022-11-15T01:07:28.931Z,45.45
2022-11-15T01:09:55.368Z,44.67
2022-11-15T01:12:21.818Z,45.28
2022-11-15T01:14:48.260Z,44.60
2022-11-15T01:17:14.663Z,45.28
2022-11-15T01:19:41.152Z,46.00
2022-11-15T01:22:07.562Z,44.60
2022-11-15T01:24:34.007Z,44.80
2022-11-15T01:27:00.415Z,45.65
2022-11-15T01:29:26.813Z,44.70
2022-11-15T01:31:54.810Z,43.92
2022-11-15T01:34:21.270Z,43.92
2022-11-15T01:36:47.663Z,43.38
2022-11-15T01:39:14.197Z,42.85
2022-11-15T01:41:40.647Z,44.00
2022-11-15T01:44:32.213Z,47.03
2022-11-15T01:47:01.916Z,44.17
2022-11-15T01:49:31.106Z,45.63
2022-11-15T01:51:59.259Z,42.63
2022-11-15T01:54:26.369Z,42.08
2022-11-15T01:57:19.079Z,45.35
2022-11-15T01:59:46.456Z,43.17
2022-11-15T02:02:13.260Z,45.50
2022-11-15T02:04:48.999Z,42.97
2022-11-15T02:07:20.827Z,46.45
2022-11-15T02:09:47.883Z,46.20
2022-11-15T02:12:19.635Z,43.15
2022-11-15T02:14:51.815Z,43.13
2022-11-15T02:17:30.426Z,46.25
2022-11-15T02:20:10.773Z,43.53
2022-11-15T02:25:18.797Z,40.85
2022-11-15T02:27:57.646Z,44.05
2022-11-15T02:30:35.846Z,44.92
2022-11-15T02:33:14.217Z,44.67
2022-11-15T02:35:55.935Z,43.90
2022-11-15T02:39:02.758Z,45.78
2022-11-15T02:41:44.452Z,47.10
2022-11-15T02:44:23.300Z,46.05
2022-11-15T02:47:14.429Z,46.47
2022-11-15T02:49:45.202Z,45.78
2022-11-15T02:52:20.193Z,46.80
2022-11-15T02:55:01.018Z,47.70
2022-11-15T02:57:39.725Z,46.65
2022-11-15T03:00:35.266Z,45.58
2022-11-15T03:03:25.409Z,49.22
2022-11-15T03:05:59.472Z,47.33
2022-11-15T03:08:40.825Z,45.83
2022-11-15T03:11:14.524Z,47.50
2022-11-15T03:13:53.233Z,48.10
2022-11-15T03:16:40.594Z,48.22
2022-11-15T03:19:25.917Z,46.70
2022-11-15T03:21:54.761Z,49.17
2022-11-15T03:24:25.978Z,49.88
2022-11-15T03:26:55.883Z,50.67
2022-11-15T03:29:28.270Z,51.72
2022-11-15T03:32:06.806Z,49.40
2022-11-15T03:34:48.497Z,50.33
2022-11-15T03:37:16.974Z,54.38
2022-11-15T03:39:44.694Z,51.67
2022-11-15T03:42:33.615Z,53.38
2022-11-15T03:45:09.907Z,51.22
2022-11-15T03:47:42.614Z,49.78
2022-11-15T03:50:13.362Z,56.72
2022-11-15T03:52:42.039Z,56.15
2022-11-15T03:55:12.187Z,54.15
2022-11-15T03:57:39.008Z,53.03
2022-11-15T04:00:06.626Z,53.60
2022-11-15T04:02:33.149Z,55.78
2022-11-15T04:04:59.532Z,54.63
2022-11-15T04:07:26.186Z,54.92
2022-11-15T04:10:05.000Z,54.67
2022-11-15T04:12:41.553Z,55.58
2022-11-15T04:15:11.276Z,55.78
2022-11-15T04:17:55.561Z,55.30
2022-11-15T04:20:43.623Z,56.33
2022-11-15T04:23:31.707Z,55.55
2022-11-15T04:26:00.995Z,53.47
2022-11-15T04:28:27.727Z,57.05
2022-11-15T04:30:56.965Z,56.60
2022-11-15T04:33:24.175Z,55.70
2022-11-15T04:36:09.212Z,54.60
2022-11-15T04:38:36.823Z,57.05
2022-11-15T04:41:04.077Z,54.13
2022-11-15T04:43:31.050Z,54.30
2022-11-15T04:45:57.671Z,53.95
2022-11-15T04:48:24.336Z,55.20
2022-11-15T04:50:50.927Z,54.15
2022-11-15T04:53:17.410Z,53.78
2022-11-15T04:55:47.298Z,55.75
2022-11-15T04:58:13.693Z,55.72
2022-11-15T05:00:41.023Z,54.83
2022-11-15T05:03:26.123Z,54.08
2022-11-15T05:05:52.573Z,53.03
2022-11-15T05:08:18.976Z,54.10
2022-11-15T05:10:45.854Z,54.17
2022-11-15T05:13:12.339Z,53.35
2022-11-15T05:15:38.984Z,53.88
2022-11-15T05:18:05.439Z,55.83
2022-11-15T05:20:31.908Z,53.70
2022-11-15T05:22:58.397Z,54.55
2022-11-15T05:25:25.246Z,53.97
2022-11-15T05:27:52.294Z,54.63
2022-11-15T05:30:18.851Z,54.20
2022-11-15T05:32:45.851Z,51.60
2022-11-15T05:35:27.035Z,52.13
2022-11-15T05:37:53.514Z,53.53
2022-11-15T05:40:19.984Z,52.83
2022-11-15T05:42:47.740Z,52.00
2022-11-15T05:45:14.849Z,53.20
2022-11-15T05:47:42.267Z,51.35
2022-11-15T05:50:12.438Z,52.22
2022-11-15T05:52:42.468Z,50.05
2022-11-15T05:55:10.313Z,47.22
2022-11-15T05:57:37.133Z,46.08
2022-11-15T06:00:04.589Z,48.00
2022-11-15T06:02:31.339Z,48.30
2022-11-15T06:04:57.827Z,48.63
2022-11-15T06:07:24.365Z,46.58
2022-11-15T06:09:50.783Z,46.15
2022-11-15T06:12:17.200Z,42.22
2022-11-15T06:14:43.649Z,43.00
2022-11-15T06:17:11.460Z,40.92
2022-11-15T06:19:38.101Z,40.15
2022-11-15T06:22:04.513Z,39.92
2022-11-15T06:24:30.919Z,41.42
2022-11-15T06:26:58.416Z,39.05
2022-11-15T06:29:24.826Z,39.60
2022-11-15T06:31:51.304Z,39.33
2022-11-15T06:34:17.742Z,38.10
2022-11-15T06:36:44.289Z,37.25
2022-11-15T06:39:10.743Z,36.90
2022-11-15T06:41:37.317Z,36.85
2022-11-15T06:44:04.052Z,36.67
2022-11-15T06:46:30.541Z,36.67
2022-11-15T06:48:57.001Z,35.75
2022-11-15T06:51:23.473Z,35.95
2022-11-15T06:53:49.963Z,35.88
2022-11-15T06:56:16.359Z,34.83
2022-11-15T06:58:42.744Z,33.53
2022-11-15T07:01:11.962Z,34.85
2022-11-15T07:03:40.797Z,33.75
2022-11-15T07:06:08.563Z,34.28
2022-11-15T07:08:35.909Z,32.05
2022-11-15T07:11:05.164Z,34.67
2022-11-15T07:13:36.665Z,31.10
2022-11-15T07:16:05.809Z,32.60
2022-11-15T07:18:35.350Z,32.03
2022-11-15T07:21:06.594Z,32.38
2022-11-15T07:23:33.590Z,33.03
2022-11-15T07:26:00.913Z,32.30
2022-11-15T07:28:28.270Z,33.67
2022-11-15T07:30:55.533Z,31.77
2022-11-15T07:33:22.497Z,31.70
2022-11-15T07:35:51.836Z,32.13
2022-11-15T07:38:21.165Z,31.23
2022-11-15T07:40:48.018Z,31.60
2022-11-15T07:43:14.688Z,30.95
2022-11-15T07:45:46.638Z,30.67
2022-11-15T07:48:13.250Z,31.92
2022-11-15T07:50:43.570Z,31.13
2022-11-15T07:55:37.152Z,30.30
2022-11-15T07:58:09.316Z,33.10
2022-11-15T08:00:36.184Z,32.00
2022-11-15T08:03:08.112Z,30.20
2022-11-15T08:05:35.940Z,29.33
2022-11-15T08:08:03.373Z,31.40
2022-11-15T08:10:30.659Z,31.20
2022-11-15T08:13:02.667Z,33.38
2022-11-15T08:15:29.755Z,32.70
2022-11-15T08:18:01.321Z,32.42
2022-11-15T08:20:32.803Z,32.25
2022-11-15T08:23:00.835Z,30.90
2022-11-15T08:25:28.609Z,32.38
2022-11-15T08:27:56.873Z,30.55
2022-11-15T08:30:24.827Z,29.85
2022-11-15T08:32:54.400Z,30.10
2022-11-15T08:35:27.659Z,30.50
2022-11-15T08:37:55.591Z,28.92
2022-11-15T08:40:22.352Z,30.40
2022-11-15T08:42:49.205Z,29.50
2022-11-15T08:45:15.992Z,30.08
2022-11-15T08:47:42.572Z,28.73
2022-11-15T08:50:09.811Z,29.50
2022-11-15T08:52:36.253Z,30.17
2022-11-15T08:55:03.020Z,30.63
2022-11-15T08:57:31.256Z,29.85
2022-11-15T08:59:58.276Z,28.17
2022-11-15T09:02:24.817Z,28.55
2022-11-15T09:04:51.271Z,29.70
2022-11-15T09:07:18.480Z,28.80
2022-11-15T09:09:44.970Z,29.30
2022-11-15T09:12:11.682Z,29.30
2022-11-15T09:14:38.397Z,28.70
2022-11-15T09:17:08.090Z,28.23
2022-11-15T09:19:34.480Z,27.25
2022-11-15T09:22:00.917Z,30.08
2022-11-15T09:24:27.602Z,27.05
2022-11-15T09:26:57.115Z,28.75
2022-11-15T09:29:23.673Z,25.35
2022-11-15T09:31:52.482Z,25.98
2022-11-15T09:34:18.995Z,27.55
2022-11-15T09:36:45.416Z,29.08
2022-11-15T09:39:11.830Z,27.17
2022-11-15T09:42:07.092Z,28.02
2022-11-15T09:44:41.891Z,25.83
2022-11-15T09:47:11.381Z,27.80
2022-11-15T09:49:38.058Z,26.77
2022-11-15T09:52:04.962Z,25.92
2022-11-15T09:54:52.764Z,26.05
2022-11-15T09:57:32.367Z,25.77
2022-11-15T10:03:14.424Z,26.77
2022-11-15T10:05:48.089Z,26.85
2022-11-15T10:08:26.744Z,26.88
2022-11-15T10:14:00.426Z,25.50
2022-11-15T10:16:49.539Z,27.00
2022-11-15T10:19:36.079Z,26.02
2022-11-15T10:22:26.695Z,25.85
2022-11-15T10:25:05.091Z,26.77
2022-11-15T10:27:31.642Z,25.00
2022-11-15T10:29:58.109Z,24.73
2022-11-15T10:32:24.682Z,27.05
2022-11-15T10:34:52.029Z,24.35
2022-11-15T10:37:32.675Z,25.83
2022-11-15T10:40:28.713Z,24.60
2022-11-15T10:43:16.932Z,25.73
2022-11-15T10:45:44.385Z,25.38
2022-11-15T10:48:13.923Z,24.63
2022-11-15T10:50:41.714Z,26.33
2022-11-15T10:53:33.317Z,23.98
2022-11-15T10:56:08.114Z,25.90
2022-11-15T10:58:44.990Z,25.02
2022-11-15T11:01:13.542Z,24.95
2022-11-15T11:03:41.801Z,25.17
2022-11-15T11:06:18.222Z,24.45
2022-11-15T11:09:22.551Z,24.15
2022-11-15T11:11:51.661Z,24.10
2022-11-15T11:14:31.913Z,23.77
2022-11-15T11:19:43.152Z,22.95
2022-11-15T11:22:35.917Z,23.15
2022-11-15T11:25:25.277Z,24.05
2022-11-15T11:28:03.488Z,23.10
2022-11-15T11:30:48.919Z,23.67
2022-11-15T11:33:34.452Z,23.50
2022-11-15T11:36:36.122Z,22.33
2022-11-15T11:39:25.361Z,23.25
2022-11-15T11:42:16.639Z,24.27
2022-11-15T11:44:47.730Z,22.75
2022-11-15T11:47:39.187Z,22.90
2022-11-15T11:50:16.659Z,23.20
2022-11-15T11:53:18.515Z,22.35
2022-11-15T11:55:53.944Z,22.83
2022-11-15T11:58:23.314Z,23.50
2022-11-15T12:01:09.897Z,21.73
2022-11-15T12:03:47.186Z,21.90
2022-11-15T12:06:28.375Z,22.98
2022-11-15T12:09:02.852Z,22.42
2022-11-15T12:11:50.353Z,22.42
2022-11-15T12:14:38.514Z,21.63
2022-11-15T12:17:05.350Z,22.67
2022-11-15T12:19:32.190Z,21.30
2022-11-15T12:22:09.484Z,22.08
2022-11-15T12:24:59.615Z,21.40
2022-11-15T12:27:39.582Z,21.73
2022-11-15T12:30:22.186Z,21.92
2022-11-15T12:33:02.322Z,20.85
2022-11-15T12:35:43.213Z,20.15
2022-11-15T12:38:13.840Z,20.38
2022-11-15T12:41:29.224Z,21.33
2022-11-15T12:43:56.785Z,19.92
2022-11-15T12:46:43.645Z,20.75
2022-11-15T12:49:21.967Z,20.10
2022-11-15T12:51:48.338Z,19.60
2022-11-15T12:54:24.055Z,20.77
2022-11-15T12:57:08.747Z,19.70
2022-11-15T12:59:59.422Z,20.40
2022-11-15T13:02:30.210Z,20.15
2022-11-15T13:05:16.741Z,20.92
2022-11-15T13:07:43.173Z,20.67
2022-11-15T13:10:30.675Z,20.92
2022-11-15T13:13:02.968Z,20.05
2022-11-15T13:15:47.743Z,20.30
2022-11-15T13:18:36.775Z,20.48
2022-11-15T13:21:25.268Z,20.55
2022-11-15T13:23:56.297Z,20.17
2022-11-15T13:26:23.604Z,19.83
2022-11-15T13:28:53.260Z,20.20
2022-11-15T13:31:22.317Z,19.48
2022-11-15T13:33:48.861Z,19.40
2022-11-15T13:36:28.382Z,19.98
2022-11-15T13:39:03.399Z,20.10
2022-11-15T13:41:33.015Z,20.02
2022-11-15T13:44:01.301Z,19.35
2022-11-15T13:46:33.841Z,19.48
2022-11-15T13:49:06.104Z,19.52
2022-11-15T13:51:38.501Z,19.50
2022-11-15T13:54:14.422Z,18.45
2022-11-15T13:56:48.696Z,19.77
2022-11-15T13:59:49.471Z,18.30
2022-11-15T14:02:19.044Z,20.25
2022-11-15T14:04:55.001Z,18.63
2022-11-15T14:07:24.412Z,18.23
2022-11-15T14:09:50.939Z,19.05
2022-11-15T14:12:35.754Z,18.00
2022-11-15T14:15:39.357Z,18.80
2022-11-15T14:18:07.009Z,18.88
2022-11-15T14:20:35.361Z,18.98
2022-11-15T14:23:19.556Z,18.13
2022-11-15T14:26:00.089Z,19.52
2022-11-15T14:28:26.571Z,17.83
2022-11-15T14:30:55.829Z,18.17
2022-11-15T14:33:34.207Z,18.58
2022-11-15T14:36:27.116Z,18.83
2022-11-15T14:38:55.164Z,17.92
2022-11-15T14:41:22.596Z,18.58
2022-11-15T14:43:49.828Z,18.75
2022-11-15T14:46:16.279Z,18.90
2022-11-15T14:48:42.780Z,18.90
2022-11-15T14:51:18.130Z,19.05
2022-11-15T14:53:45.940Z,18.70
2022-11-15T14:56:13.088Z,18.60
2022-11-15T14:58:39.713Z,19.10
2022-11-15T15:01:16.964Z,19.20
2022-11-15T15:03:45.088Z,19.52
2022-11-15T15:06:17.718Z,18.75
2022-11-15T15:08:45.375Z,18.45
2022-11-15T15:11:16.721Z,18.42
2022-11-15T15:13:43.296Z,19.02
2022-11-15T15:16:09.731Z,19.20
2022-11-15T15:18:36.169Z,18.83
2022-11-15T15:21:08.129Z,19.63
2022-11-15T15:23:36.589Z,19.38
2022-11-15T15:26:03.409Z,19.45
2022-11-15T15:28:34.292Z,19.58
2022-11-15T15:31:01.552Z,19.92
2022-11-15T15:33:28.269Z,18.80
2022-11-15T15:35:54.754Z,19.90
2022-11-15T15:38:22.513Z,20.25
2022-11-15T15:40:51.524Z,20.70
2022-11-15T15:43:18.228Z,19.97
2022-11-15T15:45:45.950Z,20.40
2022-11-15T15:48:14.024Z,19.88
2022-11-15T15:50:40.627Z,20.63
2022-11-15T15:53:09.143Z,20.20
2022-11-15T15:55:35.891Z,20.88
2022-11-15T15:58:02.331Z,20.60
2022-11-15T16:00:28.999Z,21.05
2022-11-15T16:02:55.712Z,21.65
2022-11-15T16:05:23.231Z,21.75
2022-11-15T16:07:49.757Z,20.13
2022-11-15T16:10:21.752Z,20.60
2022-11-15T16:12:48.346Z,22.42
2022-11-15T16:15:15.162Z,22.02
2022-11-15T16:17:48.082Z,23.05
2022-11-15T16:20:40.356Z,21.77
2022-11-15T16:23:10.073Z,21.13
2022-11-15T16:25:56.970Z,21.65
2022-11-15T16:28:25.777Z,20.98
2022-11-15T16:31:02.215Z,21.52
2022-11-15T16:33:28.908Z,20.77
2022-11-15T16:35:55.385Z,21.73
2022-11-15T16:38:21.862Z,21.58
2022-11-15T16:40:48.400Z,22.45
2022-11-15T16:43:14.946Z,21.92
2022-11-15T16:45:41.378Z,21.58
2022-11-15T16:48:17.989Z,22.50
2022-11-15T16:50:44.489Z,21.80
2022-11-15T16:53:10.911Z,21.30
2022-11-15T16:55:37.625Z,22.05
2022-11-15T16:58:04.050Z,20.98
2022-11-15T17:00:30.598Z,21.90
2022-11-15T17:02:57.946Z,21.30
2022-11-15T17:05:27.257Z,22.10
2022-11-15T17:07:56.547Z,21.27
2022-11-15T17:10:24.692Z,20.43
2022-11-15T17:12:51.908Z,21.23
2022-11-15T17:15:18.888Z,21.95
2022-11-15T17:17:50.816Z,22.10
2022-11-15T17:20:18.825Z,22.88
2022-11-15T17:22:47.245Z,22.00
2022-11-15T17:25:14.558Z,22.10
2022-11-15T17:27:41.336Z,22.65
2022-11-15T17:30:08.369Z,23.58
2022-11-15T17:32:38.204Z,22.70
2022-11-15T17:35:14.820Z,23.95
2022-11-15T17:37:42.168Z,26.20
2022-11-15T17:40:09.326Z,24.73
2022-11-15T17:42:35.849Z,24.85
2022-11-15T17:45:08.189Z,24.52
2022-11-15T17:47:36.417Z,23.90
2022-11-15T17:50:02.987Z,23.83
2022-11-15T17:52:29.466Z,24.55
2022-11-15T17:54:55.850Z,24.23
2022-11-15T17:57:22.235Z,23.05
2022-11-15T17:59:48.970Z,23.58
2022-11-15T18:02:15.573Z,23.63
2022-11-15T18:04:42.049Z,24.88
2022-11-15T18:07:08.576Z,26.15
2022-11-15T18:09:34.999Z,24.95
2022-11-15T18:12:01.426Z,26.60
2022-11-15T18:14:27.961Z,24.17
2022-11-15T18:16:54.996Z,25.48
2022-11-15T18:19:22.818Z,25.02
2022-11-15T18:21:58.841Z,23.83
2022-11-15T18:24:30.747Z,24.70
2022-11-15T18:26:58.643Z,25.85
2022-11-15T18:29:28.493Z,23.33
2022-11-15T18:31:55.871Z,24.90
2022-11-15T18:34:24.304Z,25.70
2022-11-15T18:36:52.443Z,25.08
2022-11-15T18:39:19.902Z,24.27
2022-11-15T18:41:47.018Z,23.67
2022-11-15T18:44:14.019Z,25.63
2022-11-15T18:46:42.044Z,24.77
2022-11-15T18:49:09.786Z,23.92
2022-11-15T18:51:41.757Z,23.58
2022-11-15T18:54:10.839Z,23.50
2022-11-15T18:56:38.122Z,25.05
2022-11-15T18:59:05.665Z,25.35
2022-11-15T19:01:34.797Z,24.90
2022-11-15T19:04:13.385Z,23.85
2022-11-15T19:06:42.547Z,24.30
2022-11-15T19:09:10.497Z,24.17
2022-11-15T19:11:39.540Z,24.38
2022-11-15T19:14:14.548Z,24.48
2022-11-15T19:16:52.361Z,25.10
2022-11-15T19:19:21.699Z,23.67
2022-11-15T19:21:48.459Z,26.52
2022-11-15T19:24:15.303Z,24.50
2022-11-15T19:26:42.541Z,24.13
2022-11-15T19:29:14.087Z,24.55
2022-11-15T19:31:41.559Z,24.25
2022-11-15T19:34:08.631Z,24.58
2022-11-15T19:36:43.619Z,24.42
2022-11-15T19:39:12.967Z,23.23
2022-11-15T19:41:42.480Z,23.95
2022-11-15T19:44:10.421Z,23.02
2022-11-15T19:46:38.395Z,23.95
2022-11-15T19:49:07.120Z,24.80
2022-11-15T19:51:34.084Z,25.85
2022-11-15T19:54:06.149Z,25.35
2022-11-15T19:56:34.366Z,24.10
2022-11-15T19:59:00.823Z,23.77
2022-11-15T20:01:30.369Z,25.50
2022-11-15T20:03:59.409Z,24.20
2022-11-15T20:06:27.248Z,24.63
2022-11-15T20:08:54.295Z,23.60
2022-11-15T20:11:21.299Z,24.80
2022-11-15T20:13:48.413Z,24.83
2022-11-15T20:16:22.593Z,24.45
2022-11-15T20:18:50.399Z,24.90
2022-11-15T20:21:17.521Z,23.25
2022-11-15T20:23:44.510Z,24.48
2022-11-15T20:26:12.084Z,24.48
2022-11-15T20:28:39.802Z,24.95
2022-11-15T20:31:07.285Z,23.65
2022-11-15T20:33:33.812Z,23.70
2022-11-15T20:36:09.496Z,23.52
2022-11-15T20:38:36.179Z,26.73
2022-11-15T20:41:03.276Z,25.70
2022-11-15T20:43:29.736Z,24.23
2022-11-15T20:45:56.329Z,26.40
2022-11-15T20:48:23.187Z,26.17
2022-11-15T20:50:49.632Z,25.17
2022-11-15T20:53:19.970Z,25.40
2022-11-15T20:55:49.508Z,24.85
2022-11-15T20:58:17.174Z,25.63
2022-11-15T21:00:45.341Z,24.38
2022-11-15T21:03:12.991Z,24.55
2022-11-15T21:05:41.741Z,25.35
2022-11-15T21:08:09.580Z,25.92
2022-11-15T21:10:54.683Z,25.92
2022-11-15T21:13:21.253Z,27.27
2022-11-15T21:15:47.771Z,25.55
2022-11-15T21:18:14.926Z,25.58
2022-11-15T21:20:41.652Z,24.00
2022-11-15T21:23:09.112Z,26.27
2022-11-15T21:25:35.832Z,28.17
2022-11-15T21:28:02.910Z,25.33
2022-11-15T21:30:29.667Z,26.20
2022-11-15T21:32:56.065Z,26.92
2022-11-15T21:35:23.717Z,26.85
2022-11-15T21:37:56.139Z,27.90
2022-11-15T21:40:23.714Z,27.63
2022-11-15T21:42:50.264Z,25.33
2022-11-15T21:45:16.822Z,26.25
2022-11-15T21:47:46.145Z,26.65
2022-11-15T21:50:13.708Z,26.88
2022-11-15T21:52:40.541Z,25.70
2022-11-15T21:55:07.580Z,26.77
2022-11-15T21:57:34.037Z,26.48
2022-11-15T22:00:18.831Z,26.27
2022-11-15T22:02:45.222Z,26.67
2022-11-15T22:05:11.708Z,25.70
2022-11-15T22:07:38.273Z,26.92
2022-11-15T22:10:05.497Z,26.58
2022-11-15T22:12:31.984Z,26.77
2022-11-15T22:14:58.456Z,26.17
2022-11-15T22:17:44.894Z,27.65
2022-11-15T22:20:42.493Z,26.15
2022-11-15T22:22:59.581Z,27.35
2022-11-15T22:25:26.461Z,29.20
2022-11-15T22:27:53.717Z,26.38
2022-11-15T22:30:20.694Z,25.40
2022-11-15T22:32:47.475Z,26.33
2022-11-15T22:35:14.887Z,27.38
2022-11-15T22:37:41.524Z,28.23
2022-11-15T22:40:11.752Z,26.15
2022-11-15T22:45:05.115Z,26.77
2022-11-15T22:47:31.663Z,24.67
2022-11-15T22:49:58.141Z,27.15
2022-11-15T22:52:24.601Z,28.33
2022-11-15T22:54:51.252Z,28.80
2022-11-15T22:57:17.735Z,27.40
2022-11-15T22:59:44.418Z,29.17
2022-11-15T23:02:10.869Z,29.90
2022-11-15T23:04:37.319Z,27.05
2022-11-15T23:07:04.159Z,26.73
2022-11-15T23:09:30.685Z,28.60
2022-11-15T23:12:15.459Z,28.77
2022-11-15T23:14:41.989Z,28.38
2022-11-15T23:17:08.421Z,28.50
2022-11-15T23:19:34.924Z,30.45
2022-11-15T23:22:19.953Z,29.45
2022-11-15T23:24:46.479Z,29.05
2022-11-15T23:27:15.551Z,29.10
2022-11-15T23:30:00.326Z,30.42
2022-11-15T23:32:45.150Z,28.05
2022-11-15T23:35:11.681Z,28.13
2022-11-15T23:37:38.288Z,28.40
2022-11-15T23:40:05.609Z,28.40
2022-11-15T23:42:32.215Z,30.98
2022-11-15T23:44:58.655Z,27.85
2022-11-15T23:47:25.191Z,29.63
2022-11-15T23:49:52.281Z,28.90
2022-11-15T23:52:18.713Z,29.27
2022-11-15T23:54:45.245Z,27.95
2022-11-15T23:57:12.401Z,27.73
2022-11-15T23:59:45.647Z,29.02
